Time;durP1;ratioP1;P1;durP2;ratioP2;P2;SDS_P1;SDS_P2;PMS_P1;PMS_P2;Temp;Humidity;BMP_temperature;BMP_pressure;BME280_temperature;BME280_humidity;BME280_pressure;Samples;Min_cycle;Max_cycle;Signal;HPM_P1;HPM_P2
2021/12/30 00:00:13;;;;;;;29.38;7.50;;;12.80;80.40;;;;;;5002034;28;20417;-72
2021/12/30 00:02:39;;;;;;;31.53;7.80;;;12.80;82.80;;;;;;4996794;28;20397;-72
2021/12/30 00:05:05;;;;;;;28.07;7.80;;;12.80;81.40;;;;;;4998717;28;20374;-72
2021/12/30 00:07:31;;;;;;;24.38;7.40;;;12.80;82.70;;;;;;4998062;28;20394;-72
2021/12/30 00:09:56;;;;;;;34.20;8.00;;;12.80;81.30;;;;;;4997255;28;20401;-72
2021/12/30 00:12:22;;;;;;;25.00;7.00;;;12.80;82.90;;;;;;4995074;28;20491;-72
2021/12/30 00:14:48;;;;;;;25.15;7.30;;;12.80;82.90;;;;;;4995321;28;20433;-72
2021/12/30 00:17:13;;;;;;;30.95;6.82;;;12.80;82.20;;;;;;4995363;28;20432;-72
2021/12/30 00:19:39;;;;;;;29.77;7.15;;;12.90;81.10;;;;;;4994506;28;20907;-71
2021/12/30 00:22:05;;;;;;;29.10;7.20;;;12.90;81.10;;;;;;4993778;28;20524;-71
2021/12/30 00:24:30;;;;;;;34.47;7.15;;;12.80;82.50;;;;;;4934122;28;1752574;-72
2021/12/30 00:26:56;;;;;;;32.33;7.70;;;12.90;80.80;;;;;;4995223;28;20400;-72
2021/12/30 00:29:22;;;;;;;32.70;7.20;;;12.80;82.50;;;;;;4995302;28;20438;-73
2021/12/30 00:31:47;;;;;;;26.57;7.43;;;12.90;81.10;;;;;;4995349;28;20410;-73
2021/12/30 00:34:13;;;;;;;38.10;8.73;;;12.90;80.00;;;;;;4995373;28;20410;-72
2021/12/30 00:36:38;;;;;;;25.57;7.00;;;12.90;80.60;;;;;;4995494;28;20810;-71
2021/12/30 00:39:04;;;;;;;42.67;7.33;;;12.80;82.60;;;;;;4993752;28;20512;-71
2021/12/30 00:41:30;;;;;;;33.92;8.07;;;12.80;82.40;;;;;;4994939;28;20418;-72
2021/12/30 00:43:55;;;;;;;33.63;7.97;;;12.80;82.90;;;;;;4994860;28;20405;-72
2021/12/30 00:46:21;;;;;;;36.08;8.35;;;12.70;82.90;;;;;;4994739;28;20398;-72
2021/12/30 00:48:46;;;;;;;37.55;7.85;;;12.70;84.50;;;;;;4994460;28;20418;-71
2021/12/30 00:51:12;;;;;;;37.45;8.02;;;12.70;84.10;;;;;;4994844;28;20391;-71
2021/12/30 00:53:38;;;;;;;29.13;7.27;;;12.70;83.40;;;;;;4994632;28;20767;-72
2021/12/30 00:56:04;;;;;;;35.42;7.60;;;12.70;82.80;;;;;;4994522;28;20394;-71
2021/12/30 00:58:30;;;;;;;35.13;8.27;;;12.70;83.40;;;;;;4994147;28;20402;-71
2021/12/30 01:00:55;;;;;;;39.22;7.97;;;12.70;84.10;;;;;;4995193;28;20406;-72
2021/12/30 01:03:22;;;;;;;41.47;7.90;;;12.70;84.80;;;;;;4994650;28;20422;-73
2021/12/30 01:05:47;;;;;;;42.45;8.52;;;12.70;83.50;;;;;;4994437;28;20402;-72
2021/12/30 01:08:14;;;;;;;46.70;8.70;;;12.70;83.50;;;;;;4993697;28;20382;-71
2021/12/30 01:10:41;;;;;;;36.42;7.82;;;12.70;84.40;;;;;;4993661;28;20390;-72
2021/12/30 01:13:10;;;;;;;40.63;8.70;;;12.60;85.30;;;;;;4993838;28;20386;-71
2021/12/30 01:18:42;;;;;;;46.63;8.55;;;12.60;86.40;;;;;;4984534;28;20982;-71
2021/12/30 01:21:12;;;;;;;46.40;8.55;;;12.50;87.00;;;;;;4993530;28;20449;-73
2021/12/30 01:23:41;;;;;;;35.38;8.88;;;12.50;87.40;;;;;;4993348;28;20399;-72
2021/12/30 01:26:08;;;;;;;34.00;8.18;;;12.60;88.10;;;;;;4993733;28;20433;-70
2021/12/30 01:28:34;;;;;;;40.00;8.45;;;12.60;87.90;;;;;;4993124;28;20382;-71
2021/12/30 01:31:00;;;;;;;37.50;8.73;;;12.60;87.50;;;;;;4993350;28;20858;-72
2021/12/30 01:33:27;;;;;;;42.88;8.70;;;12.60;88.10;;;;;;4993382;28;20405;-73
2021/12/30 01:35:52;;;;;;;41.60;8.15;;;12.60;86.40;;;;;;4993242;28;20395;-71
2021/12/30 01:38:18;;;;;;;40.10;8.23;;;12.70;86.40;;;;;;4993132;28;20721;-71
2021/12/30 01:40:46;;;;;;;41.85;7.72;;;12.70;86.40;;;;;;4991894;28;20415;-71
2021/12/30 01:43:12;;;;;;;43.92;8.07;;;12.60;87.00;;;;;;4993053;28;20895;-72
2021/12/30 01:45:40;;;;;;;41.40;7.95;;;12.70;87.60;;;;;;4993167;28;20390;-72
2021/12/30 01:48:06;;;;;;;40.45;7.45;;;12.70;85.90;;;;;;4991404;28;20449;-72
2021/12/30 01:50:32;;;;;;;33.60;7.57;;;12.80;85.10;;;;;;4991595;28;20792;-72
2021/12/30 01:53:02;;;;;;;30.90;7.45;;;12.80;85.70;;;;;;4992444;28;20386;-71
2021/12/30 01:55:27;;;;;;;31.60;6.80;;;12.80;84.90;;;;;;4993150;28;20433;-71
2021/12/30 01:57:53;;;;;;;33.47;7.40;;;12.80;85.50;;;;;;4992515;28;20761;-72
2021/12/30 02:00:23;;;;;;;32.07;7.00;;;12.80;84.80;;;;;;4993242;28;20417;-71
2021/12/30 02:02:48;;;;;;;33.63;8.25;;;12.80;85.50;;;;;;4992870;28;20390;-72
2021/12/30 02:05:15;;;;;;;39.85;7.40;;;12.80;85.30;;;;;;4992919;28;20743;-71
2021/12/30 02:07:40;;;;;;;35.80;7.20;;;12.80;85.40;;;;;;4992703;28;20441;-72
2021/12/30 02:10:07;;;;;;;35.67;7.20;;;12.70;87.10;;;;;;4992846;28;20390;-71
2021/12/30 02:12:35;;;;;;;30.20;6.63;;;12.70;88.60;;;;;;4992674;28;20405;-72
2021/12/30 02:15:03;;;;;;;34.75;7.65;;;12.70;88.40;;;;;;4992641;28;20390;-70
2021/12/30 02:17:28;;;;;;;32.97;8.18;;;12.80;86.40;;;;;;4992873;28;20433;-71
2021/12/30 02:20:04;;;;;;;31.85;7.55;;;12.90;86.10;;;;;;4992656;28;20445;-72
2021/12/30 02:22:30;;;;;;;33.40;7.35;;;13.00;85.30;;;;;;4991465;28;20481;-71
2021/12/30 02:24:57;;;;;;;30.10;6.65;;;12.90;85.50;;;;;;4992639;28;20478;-72
2021/12/30 02:27:23;;;;;;;28.20;7.05;;;13.00;86.40;;;;;;4992199;28;20477;-72
2021/12/30 02:29:49;;;;;;;34.35;7.72;;;13.00;85.60;;;;;;4992320;28;20497;-72
2021/12/30 02:32:14;;;;;;;27.63;7.05;;;12.90;87.00;;;;;;4992315;28;20398;-72
2021/12/30 02:34:40;;;;;;;36.47;7.15;;;13.00;87.20;;;;;;4992420;28;20387;-72
2021/12/30 02:37:06;;;;;;;30.47;7.90;;;13.00;88.60;;;;;;4990941;28;20405;-71
2021/12/30 02:39:33;;;;;;;35.42;7.50;;;13.10;88.50;;;;;;4993053;28;20395;-72
2021/12/30 02:41:59;;;;;;;33.45;7.90;;;13.00;89.30;;;;;;4994274;28;20394;-72
2021/12/30 02:44:25;;;;;;;33.95;7.97;;;13.00;91.00;;;;;;4992781;28;20391;-71
2021/12/30 02:46:54;;;;;;;41.03;9.30;;;13.00;91.80;;;;;;4992104;28;20410;-69
2021/12/30 02:49:21;;;;;;;28.98;8.02;;;13.00;93.30;;;;;;4992086;28;20390;-70
2021/12/30 02:51:46;;;;;;;28.98;7.22;;;13.00;93.10;;;;;;4992199;28;20405;-70
2021/12/30 02:54:12;;;;;;;24.10;8.10;;;12.90;93.90;;;;;;4992195;28;20769;-71
2021/12/30 02:56:39;;;;;;;33.58;9.15;;;12.90;95.10;;;;;;4992075;28;20679;-74
2021/12/30 02:59:05;;;;;;;34.67;9.00;;;12.90;97.50;;;;;;4991130;28;20386;-72
2021/12/30 03:01:32;;;;;;;29.35;7.95;;;12.90;98.10;;;;;;4991894;28;20436;-72
2021/12/30 03:04:02;;;;;;;34.42;7.60;;;13.00;97.50;;;;;;4991719;28;20391;-72
2021/12/30 03:06:29;;;;;;;35.25;8.52;;;13.00;97.20;;;;;;4991605;28;20465;-73
2021/12/30 03:08:56;;;;;;;29.00;8.20;;;13.00;97.50;;;;;;4991696;28;20474;-72
2021/12/30 03:11:23;;;;;;;35.60;9.25;;;13.00;97.90;;;;;;4991847;28;20464;-73
2021/12/30 03:13:49;;;;;;;25.13;8.18;;;13.10;97.40;;;;;;4991492;28;20422;-72
2021/12/30 03:16:20;;;;;;;37.40;9.07;;;13.10;98.40;;;;;;4992627;28;20421;-73
2021/12/30 03:18:49;;;;;;;42.90;10.27;;;13.10;98.70;;;;;;4992349;28;20402;-71
2021/12/30 03:21:18;;;;;;;30.93;10.00;;;13.10;99.40;;;;;;4991466;28;20498;-71
2021/12/30 03:23:44;;;;;;;30.60;10.30;;;13.10;99.90;;;;;;4991719;28;20921;-71
2021/12/30 03:26:10;;;;;;;40.58;11.70;;;13.10;99.90;;;;;;4991805;28;20477;-71
2021/12/30 03:28:39;;;;;;;40.27;13.07;;;13.10;99.90;;;;;;4991708;28;20418;-71
2021/12/30 03:31:04;;;;;;;45.35;14.32;;;13.20;99.90;;;;;;4992100;28;20390;-72
2021/12/30 03:33:31;;;;;;;32.40;13.33;;;13.10;99.90;;;;;;4991987;28;20399;-72
2021/12/30 03:36:01;;;;;;;40.17;14.20;;;13.10;99.90;;;;;;4992175;28;20447;-71
2021/12/30 03:38:32;;;;;;;39.47;14.90;;;13.10;99.90;;;;;;4994253;28;20860;-71
2021/12/30 03:40:59;;;;;;;39.90;16.20;;;13.20;99.90;;;;;;4998795;28;20416;-72
2021/12/30 03:43:24;;;;;;;36.08;16.90;;;13.20;99.90;;;;;;4998397;28;20473;-71
2021/12/30 03:45:50;;;;;;;45.60;18.52;;;13.20;99.90;;;;;;4998014;28;20421;-72
2021/12/30 03:48:16;;;;;;;58.65;21.00;;;13.20;99.90;;;;;;4998082;28;20432;-72
2021/12/30 03:50:45;;;;;;;44.55;20.05;;;13.30;99.90;;;;;;5011906;28;20402;-72
2021/12/30 03:53:13;;;;;;;54.85;22.05;;;13.20;99.90;;;;;;4996438;28;20486;-73
2021/12/30 03:55:40;;;;;;;41.97;17.20;;;13.20;99.90;;;;;;4997216;28;20414;-71
2021/12/30 03:58:06;;;;;;;31.83;11.48;;;13.20;99.90;;;;;;4995977;28;20398;-72
2021/12/30 04:00:33;;;;;;;32.55;10.27;;;13.20;99.90;;;;;;4995663;28;20416;-70
2021/12/30 04:02:59;;;;;;;32.30;10.90;;;13.20;99.90;;;;;;4995251;28;20433;-71
2021/12/30 04:05:24;;;;;;;25.97;10.17;;;13.10;99.90;;;;;;4993863;28;20390;-72
2021/12/30 04:07:51;;;;;;;35.73;10.00;;;13.10;99.90;;;;;;4994882;28;20405;-72
2021/12/30 04:10:21;;;;;;;21.23;8.73;;;13.20;99.90;;;;;;4995133;28;20394;-72
2021/12/30 04:12:47;;;;;;;21.00;8.80;;;13.20;99.90;;;;;;4994837;28;20445;-71
2021/12/30 04:15:13;;;;;;;19.25;8.38;;;13.10;99.90;;;;;;4994887;28;20500;-71
2021/12/30 04:17:38;;;;;;;19.57;8.93;;;13.20;99.90;;;;;;4994862;28;20882;-72
2021/12/30 04:20:08;;;;;;;19.65;9.30;;;13.20;99.90;;;;;;4994646;28;20410;-71
2021/12/30 04:22:38;;;;;;;23.38;8.40;;;13.20;99.90;;;;;;4995093;28;20537;-72
2021/12/30 04:25:06;;;;;;;16.77;7.83;;;13.30;99.90;;;;;;4994692;28;20386;-72
2021/12/30 04:27:32;;;;;;;19.38;7.68;;;13.20;99.90;;;;;;4994272;28;20386;-72
2021/12/30 04:29:58;;;;;;;21.47;8.00;;;13.20;99.90;;;;;;4994494;28;20894;-72
2021/12/30 04:32:23;;;;;;;16.33;7.40;;;13.20;99.90;;;;;;4994497;28;20394;-72
2021/12/30 04:34:49;;;;;;;16.30;7.33;;;13.30;99.90;;;;;;4994995;28;20791;-72
2021/12/30 04:37:15;;;;;;;17.67;7.97;;;13.30;99.90;;;;;;4994450;28;20481;-72
2021/12/30 04:39:41;;;;;;;15.25;7.80;;;13.20;99.90;;;;;;4994476;28;20504;-72
2021/12/30 04:42:06;;;;;;;18.52;8.18;;;13.20;99.90;;;;;;4994726;28;20402;-72
2021/12/30 04:44:32;;;;;;;16.50;8.13;;;13.10;99.90;;;;;;4993502;28;20387;-73
2021/12/30 04:46:58;;;;;;;16.73;8.23;;;13.20;99.90;;;;;;4994860;28;20391;-72
2021/12/30 04:49:25;;;;;;;9.88;6.05;;;13.20;99.90;;;;;;4994323;28;20386;-72
2021/12/30 04:51:51;;;;;;;14.25;6.60;;;13.30;99.90;;;;;;4994611;28;20393;-72
2021/12/30 04:54:16;;;;;;;13.30;6.40;;;13.30;99.90;;;;;;4994587;28;20806;-72
2021/12/30 04:56:42;;;;;;;14.87;6.40;;;13.30;99.90;;;;;;4994167;28;20470;-72
2021/12/30 04:59:08;;;;;;;13.83;6.47;;;13.30;99.90;;;;;;4994258;28;20387;-71
2021/12/30 05:01:33;;;;;;;7.70;6.30;;;13.40;99.90;;;;;;4994158;28;20406;-71
2021/12/30 05:03:59;;;;;;;9.80;6.30;;;13.40;99.90;;;;;;4993663;28;20382;-71
2021/12/30 05:06:24;;;;;;;11.47;7.00;;;13.40;99.90;;;;;;4994157;28;20795;-70
2021/12/30 05:08:50;;;;;;;10.82;6.63;;;13.50;99.90;;;;;;4994508;28;20402;-71
2021/12/30 05:11:16;;;;;;;10.30;6.40;;;13.50;99.90;;;;;;4994028;28;20401;-71
2021/12/30 05:13:41;;;;;;;11.83;6.97;;;13.60;99.90;;;;;;4993901;28;20676;-71
2021/12/30 05:16:07;;;;;;;12.50;7.90;;;13.50;99.90;;;;;;4993985;28;20399;-72
2021/12/30 05:18:33;;;;;;;14.00;8.20;;;13.50;99.90;;;;;;4993615;28;20394;-72
2021/12/30 05:21:02;;;;;;;12.52;8.35;;;13.70;99.90;;;;;;4993875;28;20438;-71
2021/12/30 05:23:29;;;;;;;14.15;9.25;;;13.70;99.90;;;;;;4993746;28;20394;-72
2021/12/30 05:25:55;;;;;;;15.75;9.60;;;13.60;99.90;;;;;;4993787;28;20854;-71
2021/12/30 05:28:21;;;;;;;15.75;9.80;;;13.80;99.90;;;;;;4993573;28;20394;-70
2021/12/30 05:30:46;;;;;;;14.83;9.00;;;13.80;99.90;;;;;;4993590;28;20893;-70
2021/12/30 05:33:12;;;;;;;14.10;8.43;;;13.80;99.90;;;;;;4993511;28;20469;-71
2021/12/30 05:35:38;;;;;;;9.50;7.10;;;13.80;99.90;;;;;;4993447;28;20473;-71
2021/12/30 05:38:03;;;;;;;8.85;6.20;;;13.90;99.90;;;;;;4992962;28;20468;-70
2021/12/30 05:40:30;;;;;;;10.23;5.95;;;14.00;99.90;;;;;;4993709;28;20461;-71
2021/12/30 05:42:56;;;;;;;13.48;6.00;;;13.90;99.90;;;;;;4992043;28;20386;-71
2021/12/30 05:45:22;;;;;;;10.65;5.50;;;13.90;99.90;;;;;;4992338;28;20437;-71
2021/12/30 05:47:49;;;;;;;7.15;5.43;;;13.90;99.90;;;;;;4992633;28;20382;-72
2021/12/30 05:50:21;;;;;;;6.65;5.20;;;13.90;99.90;;;;;;4993046;28;20473;-72
2021/12/30 05:52:47;;;;;;;9.82;5.50;;;14.00;99.90;;;;;;4992900;28;20929;-72
2021/12/30 05:55:14;;;;;;;8.32;5.63;;;14.00;99.90;;;;;;4991875;28;20394;-71
2021/12/30 05:57:41;;;;;;;8.93;5.80;;;14.00;99.90;;;;;;4993043;28;20390;-71
2021/12/30 06:00:11;;;;;;;7.50;6.35;;;14.00;99.90;;;;;;4992492;28;20453;-71
2021/12/30 06:02:37;;;;;;;10.18;6.20;;;14.00;99.90;;;;;;4992825;28;20390;-71
2021/12/30 06:05:04;;;;;;;8.18;6.07;;;14.00;99.90;;;;;;4993168;28;20386;-71
2021/12/30 06:07:29;;;;;;;11.52;6.07;;;14.00;99.90;;;;;;4991632;28;20399;-71
2021/12/30 06:09:55;;;;;;;6.20;5.03;;;14.10;99.90;;;;;;4999454;28;20391;-71
2021/12/30 06:12:21;;;;;;;11.95;6.20;;;14.20;99.90;;;;;;5003040;28;20477;-71
2021/12/30 06:14:46;;;;;;;7.38;5.55;;;14.20;99.90;;;;;;4995268;28;20426;-73
2021/12/30 06:17:14;;;;;;;9.23;5.63;;;14.20;99.90;;;;;;4995469;28;20477;-72
2021/12/30 06:19:39;;;;;;;6.07;4.80;;;14.30;99.90;;;;;;4995397;28;20418;-71
2021/12/30 06:22:06;;;;;;;6.10;3.87;;;14.30;99.90;;;;;;4992889;28;20378;-73
2021/12/30 06:24:32;;;;;;;5.63;4.35;;;14.40;99.90;;;;;;4993014;28;20440;-71
2021/12/30 06:26:58;;;;;;;6.43;3.80;;;14.40;99.90;;;;;;4992399;28;20526;-71
2021/12/30 06:29:23;;;;;;;4.67;3.90;;;14.30;99.90;;;;;;4992541;28;20398;-72
2021/12/30 06:31:49;;;;;;;5.63;3.90;;;14.30;99.90;;;;;;4992539;28;20466;-72
2021/12/30 06:34:14;;;;;;;5.82;3.83;;;14.40;99.90;;;;;;4992527;28;20401;-71
2021/12/30 06:36:40;;;;;;;4.25;3.85;;;14.40;99.90;;;;;;4992238;28;20413;-71
2021/12/30 06:39:06;;;;;;;5.72;3.88;;;14.40;99.90;;;;;;4992686;28;20820;-72
2021/12/30 06:41:32;;;;;;;3.28;3.08;;;14.40;99.90;;;;;;4992683;28;20417;-71
2021/12/30 06:43:58;;;;;;;3.60;3.17;;;14.40;99.90;;;;;;4992632;28;20863;-71
2021/12/30 06:46:24;;;;;;;18.67;10.95;;;14.50;99.90;;;;;;4992618;28;20382;-71
2021/12/30 06:48:50;;;;;;;3.50;3.20;;;14.50;99.90;;;;;;4992368;28;20394;-72
2021/12/30 06:51:22;;;;;;;3.10;2.80;;;14.50;99.90;;;;;;4993274;28;20387;-70
2021/12/30 06:53:47;;;;;;;3.20;2.90;;;14.50;99.90;;;;;;4993318;28;20389;-72
2021/12/30 06:56:14;;;;;;;5.10;3.90;;;14.50;99.90;;;;;;4994675;28;20768;-72
2021/12/30 06:58:39;;;;;;;2.92;2.40;;;14.50;99.90;;;;;;5002388;28;20441;-71
2021/12/30 07:01:05;;;;;;;11.00;6.47;;;14.50;99.90;;;;;;4996920;28;20887;-72
2021/12/30 07:03:31;;;;;;;4.00;2.40;;;14.60;99.90;;;;;;5000656;28;20398;-72
2021/12/30 07:05:56;;;;;;;22.77;10.82;;;14.60;99.90;;;;;;5004220;28;20414;-72
2021/12/30 07:08:23;;;;;;;3.05;2.60;;;14.50;99.90;;;;;;4994811;28;20397;-73
2021/12/30 07:10:49;;;;;;;2.90;2.60;;;14.50;99.90;;;;;;4992051;28;20828;-72
2021/12/30 07:13:15;;;;;;;3.35;3.05;;;14.50;99.90;;;;;;4991761;28;20400;-72
2021/12/30 07:15:40;;;;;;;2.65;2.33;;;14.60;99.90;;;;;;4991639;28;20470;-71
2021/12/30 07:18:06;;;;;;;3.50;2.90;;;14.60;99.90;;;;;;4991865;28;20383;-72
2021/12/30 07:20:32;;;;;;;3.47;3.20;;;14.60;99.90;;;;;;4991730;28;20414;-72
2021/12/30 07:22:58;;;;;;;4.22;3.70;;;14.60;99.90;;;;;;4991717;28;20401;-71
2021/12/30 07:25:23;;;;;;;6.30;4.72;;;14.60;99.90;;;;;;4992028;28;20385;-71
2021/12/30 07:27:53;;;;;;;10.93;5.57;;;14.60;99.90;;;;;;4991431;28;21003;-72
2021/12/30 07:30:20;;;;;;;8.50;5.30;;;14.60;99.90;;;;;;4991249;28;20390;-73
2021/12/30 07:32:47;;;;;;;8.13;5.00;;;14.60;99.90;;;;;;4991792;28;20405;-71
2021/12/30 07:35:14;;;;;;;8.13;6.07;;;14.60;99.90;;;;;;4991927;28;20406;-72
2021/12/30 07:37:39;;;;;;;12.88;5.80;;;14.60;99.90;;;;;;4991982;28;20429;-70
2021/12/30 07:40:06;;;;;;;4.20;3.90;;;14.60;99.90;;;;;;4991656;28;20935;-71
2021/12/30 07:42:31;;;;;;;6.03;4.43;;;14.60;99.90;;;;;;4991459;28;20498;-72
2021/12/30 07:44:57;;;;;;;6.93;4.25;;;14.60;99.90;;;;;;4991651;28;20406;-71
2021/12/30 07:47:22;;;;;;;5.20;4.40;;;14.60;99.90;;;;;;4991162;28;20425;-71
2021/12/30 07:49:48;;;;;;;6.60;4.60;;;14.60;99.90;;;;;;4991471;28;20485;-72
2021/12/30 07:52:15;;;;;;;8.77;4.40;;;14.50;99.90;;;;;;4991039;28;20461;-72
2021/12/30 07:54:40;;;;;;;4.32;3.92;;;14.60;99.90;;;;;;4991096;28;20398;-72
2021/12/30 07:57:06;;;;;;;5.93;4.20;;;14.50;99.90;;;;;;4991227;28;20477;-72
2021/12/30 07:59:31;;;;;;;4.93;3.95;;;14.60;99.90;;;;;;4989736;28;20394;-72
2021/12/30 08:01:58;;;;;;;3.80;3.50;;;14.60;99.90;;;;;;4991266;28;20414;-71
2021/12/30 08:04:23;;;;;;;4.60;4.20;;;14.60;99.90;;;;;;4991673;28;20405;-72
2021/12/30 08:06:49;;;;;;;5.43;3.37;;;14.60;99.90;;;;;;4991123;28;20884;-72
2021/12/30 08:09:15;;;;;;;3.75;3.40;;;14.60;99.90;;;;;;4990139;28;20382;-72
2021/12/30 08:11:40;;;;;;;4.75;3.28;;;14.50;99.90;;;;;;4991643;28;20393;-72
2021/12/30 08:14:06;;;;;;;5.72;3.10;;;14.50;99.90;;;;;;4993145;28;20418;-72
2021/12/30 08:16:32;;;;;;;5.63;3.75;;;14.50;99.90;;;;;;4999547;28;20391;-72
2021/12/30 08:18:58;;;;;;;5.93;3.78;;;14.50;99.90;;;;;;5002339;28;20452;-72
2021/12/30 08:21:24;;;;;;;4.10;3.70;;;14.50;99.90;;;;;;4999476;28;20449;-72
2021/12/30 08:23:51;;;;;;;3.97;3.57;;;14.50;99.90;;;;;;4992637;28;20430;-72
2021/12/30 08:26:18;;;;;;;3.97;3.60;;;14.50;99.90;;;;;;4995358;28;20823;-72
2021/12/30 08:28:43;;;;;;;4.03;3.60;;;14.50;99.90;;;;;;4995134;28;20827;-72
2021/12/30 08:31:09;;;;;;;8.50;4.10;;;14.60;99.90;;;;;;4994835;28;20413;-71
2021/12/30 08:33:35;;;;;;;7.87;4.10;;;14.50;99.90;;;;;;4994595;28;20759;-73
2021/12/30 08:36:00;;;;;;;4.80;3.40;;;14.50;99.90;;;;;;4994201;28;20466;-72
2021/12/30 08:38:26;;;;;;;6.33;4.03;;;14.50;99.90;;;;;;4994273;28;20430;-72
2021/12/30 08:40:52;;;;;;;10.30;4.80;;;14.50;99.90;;;;;;4992724;28;20824;-72
2021/12/30 08:43:18;;;;;;;6.05;4.63;;;14.50;99.90;;;;;;4994190;28;20444;-72
2021/12/30 08:45:45;;;;;;;6.93;5.03;;;14.50;99.90;;;;;;4994368;28;20517;-72
2021/12/30 08:48:10;;;;;;;5.00;4.50;;;14.50;99.90;;;;;;4994916;28;20478;-72
2021/12/30 08:50:36;;;;;;;6.67;4.60;;;14.50;99.90;;;;;;4994313;28;20457;-72
2021/12/30 08:53:03;;;;;;;8.30;4.68;;;14.50;99.90;;;;;;4994241;28;20394;-72
2021/12/30 08:55:28;;;;;;;5.88;4.80;;;14.40;99.90;;;;;;5009496;28;20391;-71
2021/12/30 08:57:54;;;;;;;5.43;4.80;;;14.50;99.90;;;;;;4994238;28;20471;-71
2021/12/30 09:00:27;;;;;;;7.83;5.00;;;14.40;99.90;;;;;;4991518;28;20515;-72
2021/12/30 09:02:56;;;;;;;8.85;6.07;;;14.40;99.90;;;;;;4975371;28;20467;-73
2021/12/30 09:05:22;;;;;;;6.90;5.13;;;14.40;99.90;;;;;;4974636;28;20385;-72
2021/12/30 09:07:48;;;;;;;5.32;4.82;;;14.40;99.90;;;;;;4974585;28;20739;-72
2021/12/30 09:10:15;;;;;;;7.55;5.00;;;14.50;99.90;;;;;;4975688;28;20398;-72
2021/12/30 09:12:43;;;;;;;5.30;4.20;;;14.40;99.90;;;;;;4975552;28;20790;-72
2021/12/30 09:15:13;;;;;;;8.13;4.57;;;14.50;99.90;;;;;;4975572;28;20412;-71
2021/12/30 09:17:41;;;;;;;5.78;3.72;;;14.60;99.90;;;;;;4974157;28;20403;-72
2021/12/30 09:20:07;;;;;;;6.70;3.80;;;14.60;99.90;;;;;;4974157;28;20410;-72
2021/12/30 09:22:34;;;;;;;6.60;3.60;;;14.60;99.90;;;;;;4974396;28;20396;-71
2021/12/30 09:25:00;;;;;;;8.43;3.40;;;14.70;99.90;;;;;;4974631;28;20397;-70
2021/12/30 09:27:26;;;;;;;5.55;3.17;;;14.70;99.90;;;;;;4974265;28;21013;-73
2021/12/30 09:29:51;;;;;;;5.03;3.20;;;14.80;99.90;;;;;;4974429;28;20483;-72
2021/12/30 09:32:17;;;;;;;10.00;3.22;;;14.80;99.90;;;;;;4974557;28;20396;-72
2021/12/30 09:34:44;;;;;;;4.90;2.97;;;14.80;99.90;;;;;;4973949;28;20424;-71
2021/12/30 09:37:10;;;;;;;7.65;3.47;;;14.80;99.90;;;;;;4973241;28;20392;-72
2021/12/30 09:39:40;;;;;;;2.80;2.50;;;15.00;99.90;;;;;;4974494;28;20447;-71
2021/12/30 09:42:06;;;;;;;4.70;2.90;;;15.00;99.90;;;;;;4974374;28;20392;-72
2021/12/30 09:44:32;;;;;;;5.65;3.00;;;15.10;99.90;;;;;;4973998;28;20392;-72
2021/12/30 09:46:58;;;;;;;3.72;2.40;;;15.30;98.10;;;;;;4975306;28;20504;-71
2021/12/30 09:49:24;;;;;;;6.00;2.83;;;15.30;96.60;;;;;;4976219;28;20463;-72
2021/12/30 09:51:51;;;;;;;3.45;2.30;;;15.40;93.20;;;;;;4973397;28;20448;-72
2021/12/30 09:54:17;;;;;;;6.45;2.55;;;15.40;92.60;;;;;;4982258;28;20893;-72
2021/12/30 09:56:44;;;;;;;4.90;2.80;;;15.50;90.60;;;;;;4979418;28;20487;-75
2021/12/30 09:59:11;;;;;;;2.70;2.50;;;15.60;88.80;;;;;;4982368;28;20392;-72
2021/12/30 10:01:39;;;;;;;2.70;2.50;;;15.60;89.30;;;;;;4988039;28;20418;-73
2021/12/30 10:04:05;;;;;;;6.55;2.25;;;15.70;87.00;;;;;;4979613;28;20381;-72
2021/12/30 10:06:32;;;;;;;3.17;2.30;;;15.70;84.90;;;;;;4972244;28;20793;-73
2021/12/30 10:09:03;;;;;;;4.47;1.70;;;15.80;84.40;;;;;;4973160;28;20395;-72
2021/12/30 10:11:28;;;;;;;2.20;2.00;;;15.90;82.50;;;;;;4973649;28;20843;-72
2021/12/30 10:13:57;;;;;;;2.85;2.00;;;16.00;80.30;;;;;;4973930;28;20416;-74
2021/12/30 10:16:24;;;;;;;4.30;2.10;;;16.10;78.70;;;;;;4974314;28;20399;-72
2021/12/30 10:18:54;;;;;;;4.07;2.20;;;16.10;76.90;;;;;;4975635;28;20739;-75
2021/12/30 10:21:27;;;;;;;4.88;2.13;;;16.10;78.00;;;;;;4976019;28;20404;-73
2021/12/30 10:23:56;;;;;;;4.07;2.50;;;16.00;79.00;;;;;;4987258;23;20531;-71
2021/12/30 10:26:22;;;;;;;7.10;2.30;;;16.00;79.80;;;;;;4973331;28;20392;-71
2021/12/30 10:28:50;;;;;;;4.15;2.38;;;16.00;79.50;;;;;;4972806;28;20883;-72
2021/12/30 10:31:19;;;;;;;3.08;2.60;;;15.90;80.70;;;;;;4973690;28;20785;-72
2021/12/30 10:34:04;;;;;;;4.53;2.70;;;15.80;82.70;;;;;;4973517;28;20399;-71
2021/12/30 10:36:42;;;;;;;2.78;2.58;;;15.80;82.30;;;;;;4973392;28;20392;-72
2021/12/30 10:39:26;;;;;;;2.90;2.50;;;15.70;83.50;;;;;;4973684;28;20465;-72
2021/12/30 10:42:16;;;;;;;3.33;2.63;;;15.70;82.00;;;;;;4973855;28;20407;-72
2021/12/30 10:44:54;;;;;;;3.20;2.70;;;15.70;82.90;;;;;;4974960;28;20815;-71
2021/12/30 10:47:22;;;;;;;4.13;3.00;;;15.80;80.70;;;;;;4972864;28;20483;-72
2021/12/30 10:50:06;;;;;;;5.38;3.00;;;15.80;78.80;;;;;;4973321;28;20384;-72
2021/12/30 10:52:33;;;;;;;3.20;2.53;;;15.90;80.00;;;;;;4974027;28;20384;-72
2021/12/30 10:55:08;;;;;;;5.25;3.17;;;15.90;79.00;;;;;;4973088;28;20392;-71
2021/12/30 10:57:33;;;;;;;5.78;2.75;;;15.90;77.70;;;;;;4973144;28;20741;-72
2021/12/30 11:00:00;;;;;;;6.23;3.00;;;15.90;76.70;;;;;;4972021;28;20427;-72
2021/12/30 11:02:28;;;;;;;5.63;2.95;;;16.00;74.60;;;;;;4973786;28;20392;-72
2021/12/30 11:05:04;;;;;;;4.32;3.00;;;16.10;73.20;;;;;;4972744;28;20384;-72
2021/12/30 11:07:39;;;;;;;4.32;2.80;;;16.00;73.60;;;;;;4973085;28;20392;-72
2021/12/30 11:10:05;;;;;;;2.78;2.58;;;16.00;72.40;;;;;;4973350;28;20388;-72
2021/12/30 11:12:33;;;;;;;5.38;2.55;;;15.90;71.90;;;;;;4973764;28;20423;-72
2021/12/30 11:15:06;;;;;;;5.25;2.88;;;15.90;72.20;;;;;;4974485;28;20464;-74
2021/12/30 11:17:36;;;;;;;7.30;3.23;;;15.80;73.80;;;;;;4975735;28;20751;-71
2021/12/30 11:20:06;;;;;;;5.22;3.20;;;15.80;74.30;;;;;;4977083;28;20412;-72
2021/12/30 11:22:35;;;;;;;8.23;3.47;;;15.80;74.00;;;;;;4977903;28;20392;-71
2021/12/30 11:25:03;;;;;;;7.35;3.50;;;15.90;73.10;;;;;;4978624;28;20411;-72
2021/12/30 11:27:30;;;;;;;7.35;3.10;;;15.90;72.90;;;;;;4982888;28;20420;-72
2021/12/30 11:29:59;;;;;;;8.50;3.30;;;15.90;72.10;;;;;;4984988;28;20439;-71
2021/12/30 11:32:29;;;;;;;5.38;3.10;;;15.90;72.70;;;;;;4983734;28;20392;-71
2021/12/30 11:34:56;;;;;;;9.20;3.80;;;15.90;71.80;;;;;;4981103;28;20396;-72
2021/12/30 11:37:23;;;;;;;7.72;3.13;;;15.90;71.10;;;;;;4976079;28;20768;-72
2021/12/30 11:39:53;;;;;;;9.60;3.40;;;15.90;72.30;;;;;;4975319;28;20392;-72
2021/12/30 11:42:27;;;;;;;6.22;3.17;;;15.90;71.30;;;;;;4973822;28;20468;-71
2021/12/30 11:45:02;;;;;;;8.15;3.40;;;15.90;71.30;;;;;;4972779;28;20450;-71
2021/12/30 11:47:36;;;;;;;8.77;3.50;;;16.00;70.80;;;;;;4971915;28;20394;-72
2021/12/30 11:50:06;;;;;;;6.50;3.30;;;16.10;66.70;;;;;;4970830;28;20396;-72
2021/12/30 11:52:47;;;;;;;7.95;3.72;;;16.10;65.90;;;;;;4972150;28;20435;-72
2021/12/30 11:55:43;;;;;;;4.55;3.20;;;16.10;66.90;;;;;;4972106;28;20484;-72
2021/12/30 12:01:13;;;;;;;8.45;3.72;;;16.10;65.80;;;;;;4968993;28;20424;-71
2021/12/30 12:03:55;;;;;;;10.75;3.63;;;16.00;66.40;;;;;;4956326;28;20883;-71
2021/12/30 12:06:42;;;;;;;6.18;3.00;;;15.90;67.70;;;;;;4956532;28;20393;-71
2021/12/30 12:09:13;;;;;;;5.80;3.50;;;15.90;66.20;;;;;;4956281;28;20756;-71
2021/12/30 12:11:43;;;;;;;8.68;3.42;;;16.00;66.80;;;;;;4956108;28;20390;-72
2021/12/30 12:14:21;;;;;;;6.57;3.40;;;16.00;66.20;;;;;;4959669;28;20447;-72
2021/12/30 12:17:08;;;;;;;9.80;3.90;;;16.00;67.00;;;;;;4956196;28;20390;-72
2021/12/30 12:19:36;;;;;;;10.70;3.30;;;16.00;66.30;;;;;;4956116;28;20386;-72
2021/12/30 12:22:05;;;;;;;9.40;3.80;;;16.00;65.60;;;;;;4956093;28;20402;-72
2021/12/30 12:24:34;;;;;;;7.97;3.58;;;16.00;66.50;;;;;;4955529;28;20406;-71
2021/12/30 12:27:10;;;;;;;10.43;3.47;;;16.00;65.10;;;;;;4955498;28;20476;-72
2021/12/30 12:29:40;;;;;;;5.53;3.15;;;16.00;65.20;;;;;;4955988;28;20394;-71
2021/12/30 12:32:12;;;;;;;13.13;3.88;;;15.90;64.60;;;;;;4955903;29;20424;-72
2021/12/30 12:34:45;;;;;;;8.90;3.47;;;15.80;66.60;;;;;;4955927;28;20389;-72
2021/12/30 12:37:29;;;;;;;9.68;3.28;;;15.80;67.00;;;;;;4955971;28;20422;-72
2021/12/30 12:40:00;;;;;;;9.38;3.70;;;15.90;65.60;;;;;;4956605;29;20405;-72
2021/12/30 12:43:06;;;;;;;5.80;3.20;;;15.90;63.70;;;;;;4955870;28;20464;-71
2021/12/30 12:45:51;;;;;;;7.55;3.55;;;16.00;63.60;;;;;;4934917;29;20880;-72
2021/12/30 12:48:17;;;;;;;8.13;3.90;;;15.90;63.50;;;;;;4933712;29;20414;-72